Hollowayville, Illinois
Current Conditions -  °F | °C
As of 2:15 AM on Tuesday 27 Jan 2015 (Local Time) from KVYS Reporting Station
Haze Haze  
Wind Chill: 25°   Ceiling: 200
Heat Index: 30°   Visibility: 1.7mi
Dew Point: 29°   Wind: 5mph
Humidity: 98%   Direction: 340°NNW
Pressure: 29.96"   Gusts: NA
Location:  41.3609°N, 89.3981°W
Report Text: KVYS 270815Z AUTO 34004KT 1 3/4SM BR OVC002 M01/M01 A2996 RMK AO2 T10121015
Loading
Personal Weather Stations






























Interactive Weather Map New forecast layout! Learn more

10-Day Weather Forecast

Advertisements
Track Severe Weather on mobile